createdAt,value
2023-02-11T00:01:42.476Z,77.23
2023-02-11T00:04:11.524Z,77.15
2023-02-11T00:06:40.435Z,76.84
2023-02-11T00:09:09.356Z,77.01
2023-02-11T00:11:40.482Z,77.10
2023-02-11T00:14:09.457Z,76.89
2023-02-11T00:16:38.279Z,76.65
2023-02-11T00:19:07.687Z,76.62
2023-02-11T00:21:36.780Z,77.34
2023-02-11T00:24:05.883Z,76.91
2023-02-11T00:26:37.020Z,77.05
2023-02-11T00:29:07.444Z,77.19
2023-02-11T00:31:36.538Z,77.52
2023-02-11T00:34:07.457Z,77.31
2023-02-11T00:36:36.188Z,77.27
2023-02-11T00:39:05.815Z,77.41
2023-02-11T00:41:36.613Z,77.78
2023-02-11T00:44:07.044Z,77.34
2023-02-11T00:46:35.945Z,77.25
2023-02-11T00:49:04.575Z,77.42
2023-02-11T00:51:33.408Z,77.36
2023-02-11T00:54:02.189Z,77.50
2023-02-11T00:56:31.019Z,77.55
2023-02-11T00:58:59.868Z,77.20
2023-02-11T01:01:30.158Z,77.32
2023-02-11T01:03:59.022Z,77.16
2023-02-11T01:06:27.661Z,77.71
2023-02-11T01:08:56.592Z,77.10
2023-02-11T01:11:25.326Z,77.43
2023-02-11T01:13:54.152Z,77.07
2023-02-11T01:16:24.861Z,77.12
2023-02-11T01:18:56.848Z,77.34
2023-02-11T01:21:26.152Z,77.22
2023-02-11T01:23:54.909Z,77.20
2023-02-11T01:26:23.758Z,77.13
2023-02-11T01:28:52.638Z,77.18
2023-02-11T01:31:21.543Z,77.36
2023-02-11T01:33:50.484Z,77.46
2023-02-11T01:36:20.782Z,76.80
2023-02-11T01:38:50.141Z,77.47
2023-02-11T01:41:22.798Z,76.87
2023-02-11T01:43:52.281Z,76.98
2023-02-11T01:46:36.459Z,77.24
2023-02-11T01:49:09.183Z,77.43
2023-02-11T01:51:43.588Z,76.88
2023-02-11T01:54:26.350Z,76.96
2023-02-11T01:57:08.655Z,77.42
2023-02-11T01:59:46.285Z,76.81
2023-02-11T02:02:19.091Z,77.06
2023-02-11T02:04:54.430Z,77.18
2023-02-11T02:07:34.761Z,76.96
2023-02-11T02:10:08.273Z,77.48
2023-02-11T02:12:38.660Z,76.85
2023-02-11T02:15:21.301Z,76.79
2023-02-11T02:17:59.947Z,76.58
2023-02-11T02:21:03.286Z,76.83
2023-02-11T02:23:49.949Z,77.19
2023-02-11T02:26:44.187Z,77.26
2023-02-11T02:29:44.357Z,76.95
2023-02-11T02:32:31.764Z,76.88
2023-02-11T02:35:07.394Z,76.85
2023-02-11T02:37:42.025Z,76.98
2023-02-11T02:40:15.583Z,76.62
2023-02-11T02:42:45.954Z,77.00
2023-02-11T02:45:15.990Z,76.95
2023-02-11T02:47:46.142Z,76.78
2023-02-11T02:50:19.880Z,76.87
2023-02-11T02:53:01.899Z,76.65
2023-02-11T02:55:44.390Z,76.62
2023-02-11T02:58:38.050Z,76.43
2023-02-11T03:01:17.008Z,76.28
2023-02-11T03:03:54.420Z,76.57
2023-02-11T03:06:31.437Z,76.38
2023-02-11T03:09:09.008Z,76.63
2023-02-11T03:11:39.894Z,76.76
2023-02-11T03:14:13.928Z,76.34
2023-02-11T03:16:45.129Z,76.47
2023-02-11T03:19:20.263Z,76.52
2023-02-11T03:21:53.477Z,76.25
2023-02-11T03:24:27.707Z,76.49
2023-02-11T03:27:00.461Z,76.11
2023-02-11T03:29:36.970Z,76.44
2023-02-11T03:32:16.559Z,76.31
2023-02-11T03:34:51.853Z,76.43
2023-02-11T03:37:25.231Z,76.03
2023-02-11T03:39:58.434Z,75.85
2023-02-11T03:42:34.892Z,76.18
2023-02-11T03:45:09.728Z,75.94
2023-02-11T03:47:41.391Z,76.37
2023-02-11T03:50:16.414Z,76.11
2023-02-11T03:52:46.876Z,76.30
2023-02-11T03:55:19.587Z,76.20
2023-02-11T03:57:49.439Z,76.16
2023-02-11T04:00:18.368Z,76.13
2023-02-11T04:02:47.402Z,76.14
2023-02-11T04:05:18.091Z,76.37
2023-02-11T04:07:46.921Z,76.21
2023-02-11T04:10:16.086Z,76.33
2023-02-11T04:12:45.110Z,76.26
2023-02-11T04:15:13.881Z,76.20
2023-02-11T04:17:43.240Z,76.35
2023-02-11T04:20:13.254Z,76.36
2023-02-11T04:22:43.479Z,76.15
2023-02-11T04:25:12.414Z,76.34
2023-02-11T04:27:41.262Z,76.43
2023-02-11T04:30:14.002Z,76.10
2023-02-11T04:32:42.821Z,76.26
2023-02-11T04:35:11.443Z,76.31
2023-02-11T04:37:40.205Z,76.69
2023-02-11T04:40:11.922Z,76.69
2023-02-11T04:42:40.759Z,76.66
2023-02-11T04:45:10.272Z,76.58
2023-02-11T04:47:39.013Z,76.53
2023-02-11T04:50:08.131Z,76.55
2023-02-11T04:52:36.907Z,76.45
2023-02-11T04:55:06.034Z,76.69
2023-02-11T04:57:36.535Z,76.50
2023-02-11T05:00:06.167Z,76.80
2023-02-11T05:02:34.625Z,76.38
2023-02-11T05:05:03.617Z,76.71
2023-02-11T05:07:32.580Z,76.51
2023-02-11T05:10:01.386Z,76.92
2023-02-11T05:12:30.090Z,77.01
2023-02-11T05:15:00.429Z,76.53
2023-02-11T05:17:29.162Z,76.60
2023-02-11T05:19:57.888Z,76.61
2023-02-11T05:22:26.738Z,76.57
2023-02-11T05:24:55.537Z,77.12
2023-02-11T05:27:24.391Z,76.81
2023-02-11T05:29:53.138Z,77.01
2023-02-11T05:32:23.404Z,77.04
2023-02-11T05:34:52.612Z,76.95
2023-02-11T05:37:21.351Z,77.19
2023-02-11T05:39:50.178Z,77.21
2023-02-11T05:42:18.963Z,77.01
2023-02-11T05:44:50.479Z,76.71
2023-02-11T05:47:19.654Z,77.22
2023-02-11T05:49:49.805Z,77.36
2023-02-11T05:52:18.584Z,77.20
2023-02-11T05:54:47.288Z,77.36
2023-02-11T05:57:16.418Z,77.42
2023-02-11T05:59:45.353Z,77.14
2023-02-11T06:02:14.680Z,77.04
2023-02-11T06:04:44.574Z,76.99
2023-02-11T06:07:14.839Z,77.51
2023-02-11T06:09:43.860Z,77.38
2023-02-11T06:12:12.633Z,76.64
2023-02-11T06:14:41.895Z,77.04
2023-02-11T06:17:10.680Z,76.88
2023-02-11T06:19:39.660Z,76.63
2023-02-11T06:22:08.373Z,77.19
2023-02-11T06:24:59.761Z,76.96
2023-02-11T06:27:27.687Z,76.77
2023-02-11T06:29:56.640Z,76.78
2023-02-11T06:32:42.656Z,76.96
2023-02-11T06:35:13.006Z,77.46
2023-02-11T06:37:41.881Z,77.12
2023-02-11T06:40:13.321Z,77.52
2023-02-11T06:42:42.628Z,77.21
2023-02-11T06:45:13.587Z,77.58
2023-02-11T06:47:43.065Z,77.52
2023-02-11T06:50:15.133Z,77.69
2023-02-11T06:52:43.882Z,77.58
2023-02-11T06:55:14.013Z,77.21
2023-02-11T06:57:42.862Z,77.79
2023-02-11T07:00:12.894Z,77.83
2023-02-11T07:02:41.697Z,77.63
2023-02-11T07:05:10.908Z,77.25
2023-02-11T07:07:39.743Z,77.68
2023-02-11T07:10:08.873Z,77.69
2023-02-11T07:12:39.161Z,77.81
2023-02-11T07:15:08.510Z,77.36
2023-02-11T07:17:37.343Z,77.60
2023-02-11T07:20:06.752Z,77.79
2023-02-11T07:22:36.003Z,77.76
2023-02-11T07:25:05.674Z,77.67
2023-02-11T07:27:34.093Z,77.73
2023-02-11T07:30:06.987Z,77.97
2023-02-11T07:32:36.595Z,77.19
2023-02-11T07:35:06.295Z,77.59
2023-02-11T07:37:35.386Z,77.17
2023-02-11T07:40:05.350Z,77.44
2023-02-11T07:42:35.620Z,76.99
2023-02-11T07:45:06.477Z,77.04
2023-02-11T07:47:36.150Z,77.56
2023-02-11T07:50:04.611Z,76.90
2023-02-11T07:52:33.785Z,77.13
2023-02-11T07:55:04.853Z,76.99
2023-02-11T07:57:33.918Z,76.73
2023-02-11T08:00:02.603Z,76.59
2023-02-11T08:02:40.861Z,76.52
2023-02-11T08:05:09.950Z,76.71
2023-02-11T08:07:38.622Z,76.37
2023-02-11T08:10:07.973Z,76.52
2023-02-11T08:12:36.691Z,76.56
2023-02-11T08:15:05.980Z,76.28
2023-02-11T08:17:36.699Z,75.92
2023-02-11T08:20:08.477Z,76.14
2023-02-11T08:22:37.319Z,76.54
2023-02-11T08:25:06.604Z,76.30
2023-02-11T08:27:35.841Z,76.06
2023-02-11T08:30:04.668Z,75.39
2023-02-11T08:32:35.598Z,75.79
2023-02-11T08:35:04.220Z,75.75
2023-02-11T08:37:34.566Z,75.62
2023-02-11T08:40:03.333Z,75.34
2023-02-11T08:42:31.977Z,74.95
2023-02-11T08:45:01.262Z,75.24
2023-02-11T08:47:30.021Z,75.25
2023-02-11T08:49:58.927Z,75.34
2023-02-11T08:52:27.701Z,75.63
2023-02-11T08:54:58.020Z,75.37
2023-02-11T08:57:28.023Z,75.38
2023-02-11T08:59:57.282Z,75.64
2023-02-11T09:02:26.841Z,75.91
2023-02-11T09:04:56.165Z,75.91
2023-02-11T09:07:24.907Z,75.35
2023-02-11T09:09:53.669Z,75.28
2023-02-11T09:12:23.767Z,75.13
2023-02-11T09:14:53.562Z,75.04
2023-02-11T09:17:22.362Z,74.77
2023-02-11T09:19:51.015Z,74.71
2023-02-11T09:22:20.059Z,74.79
2023-02-11T09:24:48.817Z,74.77
2023-02-11T09:27:17.479Z,74.66
2023-02-11T09:29:47.688Z,74.53
2023-02-11T09:32:16.525Z,74.69
2023-02-11T09:34:45.302Z,74.65
2023-02-11T09:37:14.114Z,74.56
2023-02-11T09:39:42.860Z,75.16
2023-02-11T09:42:36.328Z,74.85
2023-02-11T09:45:16.115Z,74.89
2023-02-11T09:47:51.109Z,74.77
2023-02-11T09:50:25.106Z,74.60
2023-02-11T09:52:59.659Z,74.52
2023-02-11T09:55:31.726Z,74.31
2023-02-11T09:58:01.329Z,74.25
2023-02-11T10:00:34.870Z,74.18
2023-02-11T10:03:24.297Z,74.22
2023-02-11T10:06:09.862Z,74.56
2023-02-11T10:08:47.107Z,74.90
2023-02-11T10:11:31.519Z,74.98
2023-02-11T10:14:15.169Z,75.22
2023-02-11T10:17:00.720Z,75.52
2023-02-11T10:19:44.560Z,75.56
2023-02-11T10:22:21.013Z,75.53
2023-02-11T10:24:55.659Z,75.94
2023-02-11T10:27:32.370Z,75.73
2023-02-11T10:30:08.369Z,75.99
2023-02-11T10:32:46.452Z,75.73
2023-02-11T10:35:18.566Z,75.74
2023-02-11T10:37:47.270Z,75.39
2023-02-11T10:40:18.293Z,75.71
2023-02-11T10:42:51.550Z,75.25
2023-02-11T10:45:29.138Z,74.73
2023-02-11T10:48:00.408Z,74.01
2023-02-11T10:50:33.989Z,74.16
2023-02-11T10:53:21.226Z,74.44
2023-02-11T10:55:55.064Z,73.04
2023-02-11T10:58:27.835Z,72.99
2023-02-11T11:01:00.025Z,72.54
2023-02-11T11:03:35.686Z,71.16
2023-02-11T11:06:07.293Z,71.19
2023-02-11T11:08:43.331Z,70.56
2023-02-11T11:11:14.468Z,69.97
2023-02-11T11:13:56.536Z,68.57
2023-02-11T11:16:28.154Z,68.60
2023-02-11T11:19:22.001Z,67.89
2023-02-11T11:21:53.272Z,67.85
2023-02-11T11:24:30.757Z,66.36
2023-02-11T11:27:02.286Z,65.78
2023-02-11T11:29:36.459Z,66.07
2023-02-11T11:32:08.239Z,65.83
2023-02-11T11:34:40.765Z,66.19
2023-02-11T11:37:14.140Z,66.60
2023-02-11T11:39:43.174Z,66.88
2023-02-11T11:42:28.081Z,66.54
2023-02-11T11:45:02.692Z,65.69
2023-02-11T11:47:41.900Z,65.79
2023-02-11T11:50:28.041Z,66.21
2023-02-11T11:53:05.338Z,65.79
2023-02-11T11:55:40.240Z,65.04
2023-02-11T11:58:14.739Z,65.32
2023-02-11T12:00:53.422Z,65.26
2023-02-11T12:03:45.186Z,64.94
2023-02-11T12:06:27.166Z,65.25
2023-02-11T12:09:10.046Z,65.18
2023-02-11T12:11:58.119Z,64.03
2023-02-11T12:14:35.270Z,63.97
2023-02-11T12:17:13.116Z,63.98
2023-02-11T12:20:10.477Z,63.39
2023-02-11T12:22:54.024Z,63.35
2023-02-11T12:25:29.189Z,63.32
2023-02-11T12:28:15.613Z,63.67
2023-02-11T12:31:07.059Z,63.34
2023-02-11T12:33:57.571Z,63.39
2023-02-11T12:36:47.659Z,62.59
2023-02-11T12:39:31.890Z,63.20
2023-02-11T12:42:28.768Z,63.50
2023-02-11T12:45:16.371Z,63.23
2023-02-11T12:48:02.839Z,63.00
2023-02-11T12:50:43.730Z,62.93
2023-02-11T12:53:40.828Z,63.44
2023-02-11T12:56:19.311Z,63.62
2023-02-11T12:58:52.009Z,63.79
2023-02-11T13:01:25.277Z,63.79
2023-02-11T13:03:58.991Z,63.25
2023-02-11T13:06:34.755Z,63.39
2023-02-11T13:09:06.181Z,62.96
2023-02-11T13:11:40.245Z,63.30
2023-02-11T13:14:16.655Z,63.00
2023-02-11T13:16:47.855Z,63.19
2023-02-11T13:19:22.985Z,63.69
2023-02-11T13:22:06.938Z,63.66
2023-02-11T13:24:45.207Z,63.94
2023-02-11T13:27:31.330Z,63.64
2023-02-11T13:30:28.734Z,64.24
2023-02-11T13:33:18.450Z,64.99
2023-02-11T13:35:49.674Z,64.97
2023-02-11T13:38:24.094Z,65.51
2023-02-11T13:41:05.132Z,65.16
2023-02-11T13:43:37.197Z,65.01
2023-02-11T13:46:10.409Z,65.53
2023-02-11T13:48:41.627Z,65.07
2023-02-11T13:51:14.430Z,65.45
2023-02-11T13:53:48.766Z,65.33
2023-02-11T13:56:30.520Z,65.99
2023-02-11T13:59:02.676Z,65.70
2023-02-11T14:02:13.243Z,65.89
2023-02-11T14:05:14.410Z,66.56
2023-02-11T14:08:24.055Z,66.60
2023-02-11T14:10:54.115Z,66.78
2023-02-11T14:13:26.653Z,67.12
2023-02-11T14:16:09.469Z,67.05
2023-02-11T14:18:39.871Z,66.85
2023-02-11T14:21:15.408Z,67.31
2023-02-11T14:23:45.346Z,67.63
2023-02-11T14:26:36.662Z,68.15
2023-02-11T14:29:14.666Z,67.97
2023-02-11T14:31:50.626Z,67.65
2023-02-11T14:34:35.274Z,68.13
2023-02-11T14:37:23.278Z,67.83
2023-02-11T14:40:10.754Z,68.03
2023-02-11T14:42:40.166Z,68.77
2023-02-11T14:45:12.904Z,68.37
2023-02-11T14:47:50.408Z,69.11
2023-02-11T14:50:25.874Z,69.19
2023-02-11T14:52:56.285Z,69.02
2023-02-11T14:55:34.069Z,69.20
2023-02-11T14:58:15.257Z,69.29
2023-02-11T15:00:53.544Z,69.52
2023-02-11T15:03:35.907Z,69.35
2023-02-11T15:06:08.992Z,68.95
2023-02-11T15:08:43.759Z,68.63
2023-02-11T15:11:15.498Z,68.88
2023-02-11T15:13:48.182Z,69.33
2023-02-11T15:16:20.179Z,69.19
2023-02-11T15:18:53.813Z,69.01
2023-02-11T15:21:24.270Z,69.22
2023-02-11T15:24:02.379Z,69.25
2023-02-11T15:26:32.175Z,69.07
2023-02-11T15:29:01.646Z,68.85
2023-02-11T15:31:32.573Z,69.48
2023-02-11T15:34:10.578Z,68.91
2023-02-11T15:36:39.885Z,68.77
2023-02-11T15:39:33.432Z,69.67
2023-02-11T15:42:20.281Z,70.10
2023-02-11T15:44:56.300Z,70.32
2023-02-11T15:47:26.091Z,70.17
2023-02-11T15:49:56.526Z,70.13
2023-02-11T15:52:29.661Z,70.35
2023-02-11T15:55:02.531Z,70.48
2023-02-11T15:57:31.747Z,71.15
2023-02-11T16:00:04.803Z,71.13
2023-02-11T16:02:45.510Z,71.37
2023-02-11T16:05:30.931Z,70.63
2023-02-11T16:08:00.841Z,71.21
2023-02-11T16:10:30.220Z,71.34
2023-02-11T16:13:20.929Z,71.50
2023-02-11T16:15:55.712Z,71.16
2023-02-11T16:18:38.823Z,71.40
2023-02-11T16:21:18.058Z,71.11
2023-02-11T16:23:54.338Z,71.63
2023-02-11T16:26:28.926Z,71.70
2023-02-11T16:29:07.093Z,72.20
2023-02-11T16:31:38.213Z,72.42
2023-02-11T16:34:15.002Z,71.47
2023-02-11T16:36:45.558Z,72.16
2023-02-11T16:39:14.674Z,72.24
2023-02-11T16:41:43.376Z,71.67
2023-02-11T16:44:12.178Z,72.13
2023-02-11T16:46:41.008Z,72.03
2023-02-11T16:49:13.207Z,72.52
2023-02-11T16:51:42.813Z,73.17
2023-02-11T16:54:15.357Z,72.40
2023-02-11T16:56:44.758Z,72.54
2023-02-11T16:59:13.897Z,72.91
2023-02-11T17:01:44.587Z,73.31
2023-02-11T17:04:25.211Z,73.77
2023-02-11T17:06:55.999Z,73.42
2023-02-11T17:09:31.087Z,73.59
2023-02-11T17:12:00.429Z,73.99
2023-02-11T17:14:29.124Z,74.26
2023-02-11T17:16:57.977Z,73.77
2023-02-11T17:19:26.604Z,73.68
2023-02-11T17:21:55.334Z,74.07
2023-02-11T17:24:24.743Z,74.06
2023-02-11T17:26:55.060Z,74.66
2023-02-11T17:29:28.781Z,74.39
2023-02-11T17:31:57.683Z,74.18
2023-02-11T17:34:26.375Z,74.96
2023-02-11T17:36:55.243Z,74.86
2023-02-11T17:39:24.385Z,74.48
2023-02-11T17:41:54.616Z,74.87
2023-02-11T17:44:23.413Z,75.21
2023-02-11T17:46:52.186Z,74.32
2023-02-11T17:49:21.044Z,74.40
2023-02-11T17:51:49.679Z,75.09
2023-02-11T17:54:20.924Z,74.45
2023-02-11T17:56:50.964Z,75.24
2023-02-11T17:59:22.606Z,74.80
2023-02-11T18:01:51.376Z,74.52
2023-02-11T18:04:21.192Z,74.83
2023-02-11T18:06:50.496Z,74.69
2023-02-11T18:09:19.177Z,74.70
2023-02-11T18:11:48.614Z,74.72
2023-02-11T18:14:17.387Z,75.50
2023-02-11T18:16:47.725Z,74.82
2023-02-11T18:19:16.490Z,74.94
2023-02-11T18:21:45.322Z,74.81
2023-02-11T18:24:14.103Z,74.69
2023-02-11T18:26:42.760Z,74.88
2023-02-11T18:29:11.614Z,75.69
2023-02-11T18:31:40.708Z,75.03
2023-02-11T18:34:12.204Z,75.29
2023-02-11T18:36:41.072Z,75.44
2023-02-11T18:39:09.838Z,75.07
2023-02-11T18:41:42.497Z,75.52
2023-02-11T18:44:14.473Z,75.14
2023-02-11T18:46:43.315Z,75.09
2023-02-11T18:49:13.517Z,75.21
2023-02-11T18:51:42.678Z,75.74
2023-02-11T18:54:11.396Z,74.88
2023-02-11T18:56:40.297Z,75.73
2023-02-11T18:59:08.943Z,75.66
2023-02-11T19:01:40.766Z,76.21
2023-02-11T19:04:09.655Z,76.07
2023-02-11T19:06:40.207Z,75.17
2023-02-11T19:09:12.008Z,75.13
2023-02-11T19:11:51.375Z,75.89
2023-02-11T19:14:23.840Z,76.13
2023-02-11T19:16:54.635Z,76.22
2023-02-11T19:19:25.946Z,75.84
2023-02-11T19:21:56.965Z,75.85
2023-02-11T19:24:26.433Z,75.71
2023-02-11T19:26:58.363Z,75.80
2023-02-11T19:29:27.333Z,76.37
2023-02-11T19:31:56.170Z,75.56
2023-02-11T19:34:25.059Z,76.56
2023-02-11T19:36:55.499Z,76.61
2023-02-11T19:39:26.026Z,76.27
2023-02-11T19:41:55.225Z,76.24
2023-02-11T19:44:23.978Z,76.00
2023-02-11T19:46:53.714Z,75.74
2023-02-11T19:49:26.388Z,76.43
2023-02-11T19:51:58.713Z,75.90
